createdAt,value
2023-01-13T00:00:16.388Z,8.87
2023-01-13T00:02:42.985Z,8.78
2023-01-13T00:05:10.557Z,8.88
2023-01-13T00:07:40.132Z,8.88
2023-01-13T00:10:11.131Z,8.98
2023-01-13T00:12:42.165Z,8.97
2023-01-13T00:15:11.085Z,8.96
2023-01-13T00:17:38.734Z,8.98
2023-01-13T00:20:06.488Z,8.97
2023-01-13T00:22:34.917Z,9.02
2023-01-13T00:25:01.834Z,9.01
2023-01-13T00:27:29.145Z,9.04
2023-01-13T00:29:55.673Z,9.02
2023-01-13T00:32:22.119Z,8.99
2023-01-13T00:34:48.579Z,8.97
2023-01-13T00:37:15.207Z,8.94
2023-01-13T00:39:41.838Z,8.99
2023-01-13T00:42:26.922Z,8.97
2023-01-13T00:44:53.451Z,8.95
2023-01-13T00:47:19.941Z,8.90
2023-01-13T00:49:46.392Z,8.91
2023-01-13T00:52:12.935Z,8.96
2023-01-13T00:54:39.889Z,8.94
2023-01-13T00:57:06.365Z,8.92
2023-01-13T00:59:32.937Z,8.94
2023-01-13T01:01:59.543Z,8.97
2023-01-13T01:04:26.149Z,9.02
2023-01-13T01:06:52.673Z,8.95
2023-01-13T01:09:19.137Z,8.92
2023-01-13T01:11:45.717Z,8.91
2023-01-13T01:14:13.824Z,8.92
2023-01-13T01:16:41.691Z,8.90
2023-01-13T01:19:08.411Z,8.97
2023-01-13T01:21:35.240Z,8.99
2023-01-13T01:24:03.697Z,8.97
2023-01-13T01:26:31.348Z,8.93
2023-01-13T01:28:57.941Z,8.90
2023-01-13T01:31:31.540Z,8.96
2023-01-13T01:33:59.715Z,8.96
2023-01-13T01:36:30.012Z,8.90
2023-01-13T01:38:58.621Z,8.92
2023-01-13T01:41:30.320Z,8.93
2023-01-13T01:44:22.722Z,8.84
2023-01-13T01:46:49.298Z,8.85
2023-01-13T01:49:34.737Z,8.92
2023-01-13T01:52:06.664Z,8.99
2023-01-13T01:54:55.761Z,8.20
2023-01-13T01:57:42.623Z,7.37
2023-01-13T02:00:10.192Z,7.35
2023-01-13T02:02:37.613Z,7.18
2023-01-13T02:05:04.360Z,7.13
2023-01-13T02:07:34.268Z,7.01
2023-01-13T02:10:06.715Z,6.97
2023-01-13T02:12:34.498Z,6.67
2023-01-13T02:15:09.972Z,6.65
2023-01-13T02:18:01.185Z,6.28
2023-01-13T02:21:12.415Z,6.14
2023-01-13T02:23:57.283Z,6.15
2023-01-13T02:26:41.564Z,6.01
2023-01-13T02:30:07.505Z,5.88
2023-01-13T02:33:07.196Z,5.88
2023-01-13T02:36:05.471Z,6.00
2023-01-13T02:38:42.963Z,6.02
2023-01-13T02:41:38.943Z,5.88
2023-01-13T02:44:10.351Z,5.93
2023-01-13T02:47:06.297Z,5.92
2023-01-13T02:49:46.593Z,6.01
2023-01-13T02:52:25.779Z,6.02
2023-01-13T02:55:01.283Z,5.96
2023-01-13T02:57:33.866Z,5.98
2023-01-13T03:00:05.420Z,6.17
2023-01-13T03:02:32.123Z,6.19
2023-01-13T03:05:00.711Z,6.37
2023-01-13T03:08:09.907Z,6.38
2023-01-13T03:10:56.879Z,6.35
2023-01-13T03:13:57.561Z,6.31
2023-01-13T03:17:01.736Z,6.20
2023-01-13T03:19:57.110Z,6.17
2023-01-13T03:22:50.415Z,6.04
2023-01-13T03:25:31.468Z,6.11
2023-01-13T03:28:05.107Z,6.32
2023-01-13T03:30:52.552Z,6.37
2023-01-13T03:33:27.169Z,6.44
2023-01-13T03:36:03.685Z,6.51
2023-01-13T03:38:42.871Z,6.45
2023-01-13T03:41:22.160Z,6.49
2023-01-13T03:44:19.455Z,6.50
2023-01-13T03:47:18.280Z,6.38
2023-01-13T03:49:59.922Z,6.48
2023-01-13T03:52:34.696Z,6.48
2023-01-13T03:55:11.782Z,6.48
2023-01-13T03:58:08.640Z,6.37
2023-01-13T04:01:19.002Z,6.49
2023-01-13T04:04:06.068Z,6.35
2023-01-13T04:06:57.886Z,6.42
2023-01-13T04:09:41.584Z,6.54
2023-01-13T04:12:17.003Z,6.63
2023-01-13T04:14:45.235Z,6.68
2023-01-13T04:17:12.569Z,6.63
2023-01-13T04:19:39.114Z,6.62
2023-01-13T04:22:05.633Z,6.57
2023-01-13T04:24:32.107Z,6.59
2023-01-13T04:26:58.617Z,6.63
2023-01-13T04:29:25.148Z,6.70
2023-01-13T04:31:51.674Z,6.72
2023-01-13T04:34:18.185Z,6.75
2023-01-13T04:36:45.083Z,6.73
2023-01-13T04:39:11.983Z,6.57
2023-01-13T04:41:56.957Z,6.59
2023-01-13T04:44:23.507Z,6.66
2023-01-13T04:46:49.969Z,6.63
2023-01-13T04:49:16.510Z,6.58
2023-01-13T04:51:43.040Z,6.56
2023-01-13T04:54:12.358Z,6.54
2023-01-13T04:56:38.861Z,6.48
2023-01-13T04:59:05.550Z,6.47
2023-01-13T05:01:32.282Z,6.50
2023-01-13T05:03:58.810Z,6.51
2023-01-13T05:06:25.287Z,6.53
2023-01-13T05:08:51.799Z,6.51
2023-01-13T05:11:37.058Z,6.51
2023-01-13T05:14:22.323Z,6.43
2023-01-13T05:17:01.560Z,6.36
2023-01-13T05:19:32.966Z,6.36
2023-01-13T05:22:19.034Z,6.29
2023-01-13T05:25:04.190Z,6.27
2023-01-13T05:27:31.962Z,6.22
2023-01-13T05:29:59.016Z,6.20
2023-01-13T05:32:27.998Z,6.25
2023-01-13T05:34:55.795Z,6.24
2023-01-13T05:37:24.015Z,6.24
2023-01-13T05:40:09.275Z,6.14
2023-01-13T05:42:54.633Z,6.08
2023-01-13T05:45:21.411Z,6.02
2023-01-13T05:47:48.013Z,5.91
2023-01-13T05:50:14.963Z,5.82
2023-01-13T05:52:41.539Z,5.75
2023-01-13T05:55:08.587Z,5.72
2023-01-13T05:57:35.659Z,5.63
2023-01-13T06:00:02.631Z,5.69
2023-01-13T06:02:29.125Z,5.66
2023-01-13T06:04:55.599Z,5.65
2023-01-13T06:07:22.083Z,5.61
2023-01-13T06:09:48.565Z,5.63
2023-01-13T06:12:15.125Z,5.60
2023-01-13T06:14:41.595Z,5.61
2023-01-13T06:17:14.603Z,5.65
2023-01-13T06:19:42.313Z,5.67
2023-01-13T06:22:17.221Z,5.66
2023-01-13T06:24:48.467Z,5.67
2023-01-13T06:27:16.568Z,5.75
2023-01-13T06:29:43.287Z,5.83
2023-01-13T06:32:18.479Z,5.72
2023-01-13T06:34:54.889Z,5.73
2023-01-13T06:37:26.065Z,5.70
2023-01-13T06:39:58.543Z,5.57
2023-01-13T06:42:48.134Z,5.53
2023-01-13T06:45:14.822Z,5.39
2023-01-13T06:47:41.870Z,5.47
2023-01-13T06:50:09.687Z,5.54
2023-01-13T06:52:36.197Z,5.48
2023-01-13T06:55:03.649Z,5.40
2023-01-13T06:57:30.202Z,5.26
2023-01-13T06:59:56.689Z,5.21
2023-01-13T07:02:23.322Z,5.20
2023-01-13T07:04:49.842Z,5.22
2023-01-13T07:07:16.338Z,5.20
2023-01-13T07:09:42.850Z,5.20
2023-01-13T07:12:09.338Z,5.24
2023-01-13T07:15:11.683Z,5.27
2023-01-13T07:17:38.173Z,5.17
2023-01-13T07:20:05.430Z,5.06
2023-01-13T07:22:31.897Z,5.06
2023-01-13T07:24:58.385Z,5.03
2023-01-13T07:27:24.837Z,5.05
2023-01-13T07:29:51.377Z,5.08
2023-01-13T07:32:17.885Z,5.10
2023-01-13T07:34:44.367Z,5.12
2023-01-13T07:37:10.935Z,5.03
2023-01-13T07:39:37.497Z,5.04
2023-01-13T07:42:22.766Z,4.98
2023-01-13T07:44:49.286Z,4.97
2023-01-13T07:47:15.848Z,4.93
2023-01-13T07:49:42.327Z,4.98
2023-01-13T07:52:08.925Z,5.06
2023-01-13T07:54:40.952Z,5.12
2023-01-13T07:57:08.412Z,5.08
2023-01-13T07:59:35.034Z,5.10
2023-01-13T08:02:01.638Z,5.15
2023-01-13T08:04:28.336Z,5.08
2023-01-13T08:06:54.830Z,5.15
2023-01-13T08:09:21.288Z,5.15
2023-01-13T08:12:07.793Z,5.21
2023-01-13T08:14:34.265Z,5.26
2023-01-13T08:17:00.757Z,5.39
2023-01-13T08:19:27.254Z,5.51
2023-01-13T08:21:53.733Z,5.65
2023-01-13T08:24:20.239Z,5.84
2023-01-13T08:26:46.742Z,5.92
2023-01-13T08:29:15.070Z,6.07
2023-01-13T08:31:41.892Z,6.15
2023-01-13T08:34:08.624Z,6.25
2023-01-13T08:36:35.096Z,6.30
2023-01-13T08:39:01.666Z,6.28
2023-01-13T08:41:47.145Z,6.26
2023-01-13T08:44:13.615Z,6.32
2023-01-13T08:46:41.877Z,6.22
2023-01-13T08:49:08.600Z,6.20
2023-01-13T08:51:35.121Z,6.29
2023-01-13T08:54:02.195Z,6.33
2023-01-13T08:56:35.205Z,6.33
2023-01-13T08:59:02.571Z,6.19
2023-01-13T09:01:30.153Z,6.12
2023-01-13T09:03:56.744Z,5.98
2023-01-13T09:06:23.533Z,5.90
2023-01-13T09:08:50.174Z,5.83
2023-01-13T09:11:56.649Z,5.68
2023-01-13T09:14:26.682Z,5.69
2023-01-13T09:16:53.282Z,5.89
2023-01-13T09:19:19.795Z,5.92
2023-01-13T09:21:46.324Z,6.05
2023-01-13T09:24:13.175Z,6.12
2023-01-13T09:26:39.780Z,6.23
2023-01-13T09:29:06.392Z,6.34
2023-01-13T09:31:35.738Z,6.45
2023-01-13T09:34:22.845Z,6.63
2023-01-13T09:36:50.182Z,6.64
2023-01-13T09:39:18.003Z,6.74
2023-01-13T09:42:09.204Z,6.65
2023-01-13T09:44:55.567Z,6.70
2023-01-13T09:47:29.110Z,6.72
2023-01-13T09:50:13.959Z,6.73
2023-01-13T09:52:43.215Z,6.77
2023-01-13T09:55:38.538Z,6.79
2023-01-13T09:58:18.404Z,6.96
2023-01-13T10:01:28.072Z,6.88
2023-01-13T10:03:55.107Z,6.99
2023-01-13T10:06:35.898Z,7.14
2023-01-13T10:09:02.647Z,7.05
2023-01-13T10:11:58.958Z,7.04
2023-01-13T10:14:54.781Z,6.96
2023-01-13T10:17:31.149Z,7.09
2023-01-13T10:20:17.020Z,7.08
2023-01-13T10:23:18.865Z,7.12
2023-01-13T10:25:56.044Z,7.26
2023-01-13T10:28:23.939Z,7.11
2023-01-13T10:30:50.535Z,7.25
2023-01-13T10:33:26.262Z,7.22
2023-01-13T10:36:21.270Z,7.24
2023-01-13T10:38:50.394Z,7.26
2023-01-13T10:41:26.975Z,7.43
2023-01-13T10:44:19.518Z,7.18
2023-01-13T10:46:58.346Z,7.16
2023-01-13T10:49:38.523Z,7.26
2023-01-13T10:52:27.539Z,7.27
2023-01-13T10:54:55.711Z,7.33
2023-01-13T10:57:27.698Z,7.19
2023-01-13T10:59:55.585Z,7.27
2023-01-13T11:02:35.749Z,7.34
2023-01-13T11:05:21.864Z,7.48
2023-01-13T11:07:52.484Z,7.48
2023-01-13T11:10:32.494Z,7.50
2023-01-13T11:13:09.708Z,7.38
2023-01-13T11:15:57.532Z,7.19
2023-01-13T11:18:40.307Z,7.57
2023-01-13T11:21:23.122Z,7.33
2023-01-13T11:24:10.387Z,7.26
2023-01-13T11:26:53.562Z,7.36
2023-01-13T11:29:40.251Z,7.54
2023-01-13T11:32:17.345Z,7.60
2023-01-13T11:34:52.346Z,7.67
2023-01-13T11:37:27.571Z,7.47
2023-01-13T11:40:05.628Z,7.35
2023-01-13T11:42:40.080Z,7.37
2023-01-13T11:45:38.077Z,7.46
2023-01-13T11:48:05.254Z,7.52
2023-01-13T11:50:51.132Z,7.23
2023-01-13T11:53:53.137Z,7.02
2023-01-13T11:57:12.380Z,6.98
2023-01-13T12:00:03.049Z,7.09
2023-01-13T12:03:18.811Z,7.13
2023-01-13T12:05:59.325Z,7.21
2023-01-13T12:08:51.983Z,7.29
2023-01-13T12:12:15.026Z,7.50
2023-01-13T12:14:44.102Z,7.10
2023-01-13T12:17:30.056Z,7.20
2023-01-13T12:19:56.815Z,7.36
2023-01-13T12:22:35.337Z,7.50
2023-01-13T12:25:24.177Z,7.48
2023-01-13T12:28:10.703Z,7.40
2023-01-13T12:30:57.807Z,7.40
2023-01-13T12:33:47.137Z,7.27
2023-01-13T12:37:02.715Z,7.54
2023-01-13T12:40:12.958Z,7.66
2023-01-13T12:43:13.311Z,7.62
2023-01-13T12:45:40.131Z,7.48
2023-01-13T12:48:06.700Z,7.40
2023-01-13T12:50:40.685Z,7.36
2023-01-13T12:53:32.873Z,7.38
2023-01-13T12:56:25.577Z,7.52
2023-01-13T12:58:52.030Z,7.54
2023-01-13T13:01:33.919Z,7.03
2023-01-13T13:04:09.384Z,6.39
2023-01-13T13:06:41.837Z,6.14
2023-01-13T13:09:32.985Z,6.28
2023-01-13T13:13:10.366Z,6.53
2023-01-13T13:15:37.540Z,6.91
2023-01-13T13:18:20.351Z,6.81
2023-01-13T13:21:08.929Z,6.79
2023-01-13T13:23:45.755Z,6.78
2023-01-13T13:26:12.127Z,6.68
2023-01-13T13:29:08.794Z,6.82
2023-01-13T13:31:59.143Z,6.80
2023-01-13T13:35:16.707Z,6.90
2023-01-13T13:38:28.608Z,6.91
2023-01-13T13:41:13.891Z,6.96
2023-01-13T13:44:04.145Z,6.79
2023-01-13T13:46:47.279Z,6.90
2023-01-13T13:49:17.152Z,7.18
2023-01-13T13:52:04.607Z,7.12
2023-01-13T13:54:32.484Z,7.28
2023-01-13T13:56:59.303Z,7.29
2023-01-13T13:59:33.504Z,7.27
2023-01-13T14:02:02.005Z,7.45
2023-01-13T14:04:35.382Z,7.50
2023-01-13T14:07:20.496Z,7.00
2023-01-13T14:09:54.151Z,6.77
2023-01-13T14:12:25.361Z,6.44
2023-01-13T14:14:53.752Z,6.14
2023-01-13T14:17:27.778Z,5.82
2023-01-13T14:20:17.861Z,5.65
2023-01-13T14:22:53.794Z,5.62
2023-01-13T14:25:50.066Z,5.51
2023-01-13T14:28:35.895Z,5.51
2023-01-13T14:31:04.047Z,5.83
2023-01-13T14:33:39.317Z,5.95
2023-01-13T14:36:14.626Z,5.98
2023-01-13T14:38:44.271Z,6.17
2023-01-13T14:41:18.011Z,5.96
2023-01-13T14:43:47.167Z,5.93
2023-01-13T14:46:15.173Z,5.88
2023-01-13T14:48:46.940Z,5.95
2023-01-13T14:51:25.176Z,5.97
2023-01-13T14:53:52.578Z,5.95
2023-01-13T14:56:40.466Z,5.96
2023-01-13T14:59:48.260Z,5.99
2023-01-13T15:02:29.980Z,5.89
2023-01-13T15:05:01.228Z,6.03
2023-01-13T15:07:31.791Z,6.04
2023-01-13T15:10:04.571Z,6.08
2023-01-13T15:12:39.405Z,6.09
2023-01-13T15:15:28.878Z,6.11
2023-01-13T15:17:55.703Z,6.18
2023-01-13T15:20:24.273Z,6.20
2023-01-13T15:22:52.522Z,6.07
2023-01-13T15:25:20.053Z,6.23
2023-01-13T15:27:50.877Z,6.21
2023-01-13T15:30:22.477Z,6.22
2023-01-13T15:32:48.958Z,6.19
2023-01-13T15:35:20.714Z,6.29
2023-01-13T15:37:49.082Z,6.33
2023-01-13T15:40:25.409Z,6.28
2023-01-13T15:43:10.312Z,6.14
2023-01-13T15:45:56.587Z,6.26
2023-01-13T15:48:27.844Z,6.25
2023-01-13T15:50:54.348Z,6.36
2023-01-13T15:53:21.007Z,6.41
2023-01-13T15:55:53.479Z,6.40
2023-01-13T15:58:26.085Z,6.43
2023-01-13T16:00:53.704Z,6.47
2023-01-13T16:03:20.279Z,6.40
2023-01-13T16:05:46.875Z,6.30
2023-01-13T16:08:18.977Z,6.40
2023-01-13T16:10:46.810Z,6.54
2023-01-13T16:13:14.941Z,6.49
2023-01-13T16:15:50.571Z,6.37
2023-01-13T16:18:25.877Z,6.41
2023-01-13T16:20:55.002Z,6.43
2023-01-13T16:23:22.631Z,6.38
2023-01-13T16:25:50.895Z,6.53
2023-01-13T16:28:28.088Z,6.53
2023-01-13T16:30:54.864Z,6.37
2023-01-13T16:33:21.382Z,6.39
2023-01-13T16:36:10.504Z,6.27
2023-01-13T16:38:34.288Z,6.14
2023-01-13T16:41:00.783Z,6.03
2023-01-13T16:43:27.770Z,5.78
2023-01-13T16:45:54.477Z,5.68
2023-01-13T16:48:22.617Z,5.57
2023-01-13T16:50:49.203Z,5.72
2023-01-13T16:53:15.714Z,5.81
2023-01-13T16:55:43.099Z,5.87
2023-01-13T16:58:20.632Z,5.76
2023-01-13T17:00:48.143Z,5.48
2023-01-13T17:03:16.565Z,5.59
2023-01-13T17:05:49.320Z,5.01
2023-01-13T17:08:18.002Z,4.73
2023-01-13T17:10:47.850Z,4.56
2023-01-13T17:13:16.985Z,4.60
2023-01-13T17:15:45.151Z,4.65
2023-01-13T17:18:13.131Z,4.85
2023-01-13T17:20:39.598Z,4.85
2023-01-13T17:23:06.085Z,4.83
2023-01-13T17:25:32.539Z,4.96
2023-01-13T17:27:59.057Z,5.12
2023-01-13T17:30:25.552Z,5.17
2023-01-13T17:32:52.066Z,5.25
2023-01-13T17:35:22.869Z,5.35
2023-01-13T17:37:49.415Z,5.38
2023-01-13T17:40:16.996Z,5.57
2023-01-13T17:42:43.466Z,5.69
2023-01-13T17:45:12.063Z,5.80
2023-01-13T17:47:38.707Z,5.67
2023-01-13T17:50:06.065Z,5.66
2023-01-13T17:52:34.352Z,5.64
2023-01-13T17:55:00.881Z,5.78
2023-01-13T17:57:27.529Z,5.66
2023-01-13T17:59:54.053Z,5.65
2023-01-13T18:02:20.600Z,5.63
2023-01-13T18:04:47.145Z,5.61
2023-01-13T18:07:13.679Z,5.65
2023-01-13T18:09:40.223Z,5.58
2023-01-13T18:12:06.848Z,5.60
2023-01-13T18:14:34.456Z,5.64
2023-01-13T18:17:01.136Z,5.67
2023-01-13T18:19:46.191Z,5.81
2023-01-13T18:22:32.473Z,5.81
2023-01-13T18:25:17.624Z,5.73
2023-01-13T18:27:44.606Z,5.81
2023-01-13T18:30:12.532Z,5.82
2023-01-13T18:32:39.616Z,5.87
2023-01-13T18:35:10.486Z,5.90
2023-01-13T18:37:40.460Z,5.86
2023-01-13T18:40:11.696Z,5.78
2023-01-13T18:42:58.810Z,5.90
2023-01-13T18:45:27.862Z,5.67
2023-01-13T18:47:57.757Z,5.94
2023-01-13T18:50:24.605Z,5.95
2023-01-13T18:52:52.087Z,5.97
2023-01-13T18:55:18.827Z,5.99
2023-01-13T18:57:45.637Z,6.01
2023-01-13T19:00:17.448Z,6.05
2023-01-13T19:02:46.886Z,6.17
2023-01-13T19:05:14.318Z,6.19
2023-01-13T19:07:40.852Z,6.16
2023-01-13T19:10:09.672Z,6.26
2023-01-13T19:12:36.672Z,6.15
2023-01-13T19:15:03.487Z,6.14
2023-01-13T19:17:34.984Z,6.15
2023-01-13T19:20:04.288Z,6.20
2023-01-13T19:22:34.129Z,6.23
2023-01-13T19:25:02.940Z,6.30
2023-01-13T19:27:29.955Z,6.31
2023-01-13T19:30:01.785Z,6.32
2023-01-13T19:32:30.696Z,6.32
2023-01-13T19:34:59.484Z,6.31
2023-01-13T19:37:30.389Z,6.31
2023-01-13T19:40:00.468Z,6.21
2023-01-13T19:42:48.829Z,6.08
2023-01-13T19:45:29.222Z,6.10
2023-01-13T19:47:57.679Z,6.14
2023-01-13T19:50:25.190Z,6.22
2023-01-13T19:52:52.105Z,6.31
2023-01-13T19:55:19.740Z,6.28
2023-01-13T19:57:46.358Z,6.38
2023-01-13T20:00:16.706Z,6.43
2023-01-13T20:02:49.015Z,6.37
2023-01-13T20:05:21.248Z,6.36
2023-01-13T20:07:50.640Z,6.37
2023-01-13T20:10:20.542Z,6.35
2023-01-13T20:12:47.040Z,6.33
2023-01-13T20:15:14.013Z,6.37
2023-01-13T20:17:41.417Z,6.36
2023-01-13T20:20:10.034Z,6.27
2023-01-13T20:22:40.197Z,6.27
2023-01-13T20:25:08.816Z,6.20
2023-01-13T20:27:36.466Z,6.21
2023-01-13T20:30:06.307Z,6.25
2023-01-13T20:32:32.841Z,6.22
2023-01-13T20:34:59.325Z,6.32
2023-01-13T20:37:26.290Z,6.42
2023-01-13T20:39:52.976Z,6.39
2023-01-13T20:42:38.139Z,6.51
2023-01-13T20:45:05.778Z,6.41
2023-01-13T20:47:32.419Z,6.38
2023-01-13T20:49:59.212Z,6.32
2023-01-13T20:52:26.473Z,6.37
2023-01-13T20:54:53.054Z,6.36
2023-01-13T20:57:19.536Z,6.40
2023-01-13T20:59:46.580Z,6.45
2023-01-13T21:02:15.841Z,6.41
2023-01-13T21:04:42.878Z,6.38
2023-01-13T21:07:09.956Z,6.40
2023-01-13T21:09:37.899Z,6.44
2023-01-13T21:12:23.840Z,6.40
2023-01-13T21:15:09.130Z,6.37
2023-01-13T21:17:54.811Z,6.44
2023-01-13T21:20:21.551Z,6.37
2023-01-13T21:22:49.249Z,6.39
2023-01-13T21:25:17.646Z,6.42
2023-01-13T21:27:44.206Z,6.45
2023-01-13T21:30:14.669Z,6.45
2023-01-13T21:32:45.564Z,6.45
2023-01-13T21:35:14.457Z,6.47
2023-01-13T21:37:43.531Z,6.41
2023-01-13T21:40:13.838Z,6.39
2023-01-13T21:42:58.921Z,6.36
2023-01-13T21:45:44.210Z,6.38
2023-01-13T21:48:10.826Z,6.33
2023-01-13T21:50:38.179Z,6.36
2023-01-13T21:53:07.212Z,6.39
2023-01-13T21:55:36.592Z,6.41
2023-01-13T21:58:15.230Z,6.39
2023-01-13T22:00:44.659Z,6.47
2023-01-13T22:03:14.596Z,6.51
2023-01-13T22:05:41.683Z,6.50
2023-01-13T22:08:08.624Z,6.52
2023-01-13T22:10:35.719Z,6.54
2023-01-13T22:13:23.845Z,6.46
2023-01-13T22:15:50.419Z,6.38
2023-01-13T22:18:18.180Z,6.34
2023-01-13T22:20:45.350Z,6.31
2023-01-13T22:23:12.087Z,6.41
2023-01-13T22:25:38.565Z,6.38
2023-01-13T22:28:06.029Z,6.45
2023-01-13T22:30:33.220Z,6.44
2023-01-13T22:33:00.294Z,6.40
2023-01-13T22:35:26.957Z,6.33
2023-01-13T22:37:53.437Z,6.37
2023-01-13T22:40:20.128Z,6.40
2023-01-13T22:42:46.587Z,6.41
2023-01-13T22:45:14.430Z,6.39
2023-01-13T22:47:41.056Z,6.47
2023-01-13T22:50:09.866Z,6.44
2023-01-13T22:52:36.482Z,6.47
2023-01-13T22:55:04.081Z,6.47
2023-01-13T22:57:46.496Z,6.01
2023-01-13T23:00:14.944Z,6.11
2023-01-13T23:02:41.662Z,6.25
2023-01-13T23:05:08.660Z,6.33
2023-01-13T23:07:35.607Z,6.32
2023-01-13T23:10:02.647Z,6.34
2023-01-13T23:12:29.139Z,6.36
2023-01-13T23:14:55.577Z,6.38
2023-01-13T23:17:22.075Z,6.33
2023-01-13T23:19:48.507Z,6.39
2023-01-13T23:22:15.528Z,6.33
2023-01-13T23:24:42.038Z,6.43
2023-01-13T23:27:08.476Z,6.49
2023-01-13T23:29:34.961Z,6.56
2023-01-13T23:32:01.447Z,6.48
2023-01-13T23:34:28.022Z,6.45
2023-01-13T23:36:54.544Z,6.47
2023-01-13T23:39:21.085Z,6.39
2023-01-13T23:41:47.508Z,6.45
2023-01-13T23:44:13.995Z,6.47
2023-01-13T23:46:40.636Z,6.51
2023-01-13T23:49:07.270Z,6.39
2023-01-13T23:51:33.922Z,6.35
2023-01-13T23:54:00.559Z,6.47
2023-01-13T23:56:30.912Z,6.51
2023-01-13T23:58:57.948Z,6.52
